Time;durP1;ratioP1;P1;durP2;ratioP2;P2;SDS_P1;SDS_P2;PMS_P1;PMS_P2;Temp;Humidity;BMP_temperature;BMP_pressure;BME280_temperature;BME280_humidity;BME280_pressure;Samples;Min_cycle;Max_cycle;Signal;HPM_P1;HPM_P2
2022/08/25 00:01:32;;;;;;;5.90;4.40;;;25.00;1.00;;;;;;5089333;28;20792;-77
2022/08/25 00:03:59;;;;;;;13.83;4.97;;;25.10;1.00;;;;;;5087260;28;20453;-77
2022/08/25 00:06:25;;;;;;;5.90;4.43;;;25.00;1.00;;;;;;5089689;28;20489;-77
2022/08/25 00:08:50;;;;;;;12.27;4.40;;;25.00;1.00;;;;;;5091503;28;20416;-77
2022/08/25 00:11:20;;;;;;;8.60;4.63;;;24.90;1.00;;;;;;5090091;28;20176;-77
2022/08/25 00:13:49;;;;;;;5.50;4.77;;;25.40;1.00;;;;;;5089029;28;20748;-77
2022/08/25 00:16:17;;;;;;;8.40;4.43;;;24.80;1.00;;;;;;5088618;28;20436;-77
2022/08/25 00:18:45;;;;;;;5.80;4.67;;;24.80;1.00;;;;;;5090656;28;20409;-77
2022/08/25 00:21:13;;;;;;;6.47;5.03;;;24.80;1.00;;;;;;5089731;28;20456;-77
2022/08/25 00:23:39;;;;;;;5.13;4.20;;;24.80;1.00;;;;;;5098896;28;20444;-78
2022/08/25 00:26:05;;;;;;;5.50;4.57;;;24.80;1.00;;;;;;5089716;28;20433;-78
2022/08/25 00:28:30;;;;;;;7.07;4.70;;;24.70;1.00;;;;;;5091788;28;20278;-77
2022/08/25 00:30:57;;;;;;;7.10;4.67;;;24.70;1.00;;;;;;5088765;28;20553;-77
2022/08/25 00:33:25;;;;;;;7.23;4.87;;;24.80;1.00;;;;;;5084725;28;20264;-78
2022/08/25 00:35:51;;;;;;;5.60;4.53;;;24.70;1.00;;;;;;5095272;28;20454;-78
2022/08/25 00:38:17;;;;;;;7.47;4.83;;;24.70;1.00;;;;;;5109884;28;20481;-78
2022/08/25 00:40:42;;;;;;;7.53;4.90;;;24.60;1.00;;;;;;5106720;28;20532;-78
2022/08/25 00:43:08;;;;;;;8.37;5.33;;;24.60;1.00;;;;;;5082431;28;20269;-78
2022/08/25 00:45:35;;;;;;;7.80;5.57;;;24.60;1.00;;;;;;5084630;28;20598;-78
2022/08/25 00:48:01;;;;;;;8.80;5.00;;;24.50;1.00;;;;;;5080316;28;20697;-77
2022/08/25 00:50:30;;;;;;;6.93;5.40;;;24.50;1.00;;;;;;5089087;28;20451;-78
2022/08/25 00:53:00;;;;;;;7.07;5.40;;;24.50;1.00;;;;;;5088753;28;20179;-77
2022/08/25 00:55:34;;;;;;;8.30;5.20;;;24.40;1.00;;;;;;5089444;28;20418;-78
2022/08/25 00:58:17;;;;;;;9.90;5.63;;;25.40;1.00;;;;;;5089390;28;20426;-77
2022/08/25 01:00:48;;;;;;;7.20;5.37;;;24.40;1.00;;;;;;5089831;28;20408;-78
2022/08/25 01:03:17;;;;;;;6.90;5.50;;;24.40;1.00;;;;;;5085747;28;20452;-77
2022/08/25 01:05:42;;;;;;;6.43;5.57;;;24.60;1.00;;;;;;5083741;28;20940;-78
2022/08/25 01:08:08;;;;;;;7.77;5.53;;;24.30;1.00;;;;;;5090361;28;20415;-78
2022/08/25 01:10:37;;;;;;;7.33;5.20;;;24.30;1.00;;;;;;5073865;28;20229;-77
2022/08/25 01:13:16;;;;;;;9.50;5.70;;;24.20;1.00;;;;;;5069922;28;20761;-77
2022/08/25 01:15:44;;;;;;;6.50;5.40;;;24.20;1.00;;;;;;5087640;28;20436;-77
2022/08/25 01:18:10;;;;;;;6.13;5.23;;;24.20;1.00;;;;;;5085163;28;20438;-77
2022/08/25 01:20:36;;;;;;;8.40;5.63;;;24.20;1.00;;;;;;5089188;28;20421;-78
2022/08/25 01:23:02;;;;;;;7.90;5.80;;;24.20;1.00;;;;;;5088038;28;21001;-78
2022/08/25 01:25:58;;;;;;;7.27;5.87;;;24.30;1.00;;;;;;5089010;28;20409;-78
2022/08/25 01:28:23;;;;;;;7.23;5.50;;;24.10;1.00;;;;;;5088684;28;20183;-77
2022/08/25 01:30:49;;;;;;;9.77;6.00;;;24.10;1.00;;;;;;5089356;28;20753;-77
2022/08/25 01:33:18;;;;;;;6.83;5.57;;;24.10;1.00;;;;;;5085338;28;20211;-78
2022/08/25 01:35:44;;;;;;;11.83;5.90;;;24.00;1.00;;;;;;5086833;28;20198;-77
2022/08/25 01:38:10;;;;;;;8.17;6.00;;;24.00;1.00;;;;;;5087977;28;20511;-78
2022/08/25 01:40:36;;;;;;;7.43;6.10;;;24.00;1.00;;;;;;5082383;28;20528;-77
2022/08/25 01:43:13;;;;;;;7.53;5.23;;;24.00;1.00;;;;;;5084908;28;20577;-78
2022/08/25 01:45:42;;;;;;;8.27;6.13;;;23.90;1.00;;;;;;5088948;28;20397;-77
2022/08/25 01:48:09;;;;;;;7.77;5.93;;;23.90;1.00;;;;;;5087399;28;20524;-77
2022/08/25 01:50:36;;;;;;;7.00;5.60;;;23.90;1.00;;;;;;5087724;28;20956;-77
2022/08/25 01:53:17;;;;;;;7.03;6.10;;;23.90;1.00;;;;;;5088201;28;20440;-77
2022/08/25 01:55:54;;;;;;;9.73;6.17;;;24.00;1.00;;;;;;5089764;28;20460;-77
2022/08/25 01:58:24;;;;;;;12.03;6.37;;;23.90;1.00;;;;;;5088428;28;20475;-77
2022/08/25 02:00:53;;;;;;;9.27;6.40;;;23.80;1.00;;;;;;5088707;28;20414;-77
2022/08/25 02:03:19;;;;;;;6.70;5.93;;;23.80;1.00;;;;;;5084196;28;20819;-78
2022/08/25 02:05:45;;;;;;;8.17;6.67;;;23.80;1.00;;;;;;5080565;28;20440;-78
2022/08/25 02:08:10;;;;;;;7.57;5.80;;;23.70;1.00;;;;;;5089170;28;20401;-77
2022/08/25 02:10:37;;;;;;;7.50;6.00;;;23.70;1.00;;;;;;5087677;28;20204;-78
2022/08/25 02:13:04;;;;;;;9.00;6.77;;;23.70;1.00;;;;;;5087758;28;20229;-78
2022/08/25 02:15:30;;;;;;;9.07;6.73;;;23.60;1.00;;;;;;5088595;28;20550;-78
2022/08/25 02:17:56;;;;;;;7.30;5.90;;;23.70;1.00;;;;;;5072184;28;21011;-78
2022/08/25 02:20:22;;;;;;;9.97;6.57;;;24.60;1.00;;;;;;5081776;28;20182;-78
2022/08/25 02:22:50;;;;;;;8.37;6.80;;;23.60;1.00;;;;;;5094946;28;20247;-78
2022/08/25 02:25:16;;;;;;;9.87;6.57;;;23.60;1.00;;;;;;5088762;28;20417;-78
2022/08/25 02:27:42;;;;;;;12.60;6.63;;;23.50;1.00;;;;;;5087414;28;20512;-77
2022/08/25 02:30:08;;;;;;;8.60;6.90;;;23.60;1.00;;;;;;5088519;28;20915;-77
2022/08/25 02:32:34;;;;;;;9.40;6.80;;;23.50;1.00;;;;;;5086166;28;20427;-78
2022/08/25 02:34:59;;;;;;;9.80;7.30;;;23.40;1.00;;;;;;5086700;28;20473;-77
2022/08/25 02:37:25;;;;;;;7.63;6.37;;;24.10;1.00;;;;;;5087571;28;20186;-77
2022/08/25 02:39:50;;;;;;;9.57;6.60;;;23.30;1.00;;;;;;5087506;28;20179;-77
2022/08/25 02:42:16;;;;;;;10.50;7.60;;;23.40;1.00;;;;;;5086633;28;20643;-77
2022/08/25 02:44:42;;;;;;;9.00;7.20;;;23.30;1.00;;;;;;5088246;28;20645;-77
2022/08/25 02:47:07;;;;;;;9.07;7.00;;;23.30;1.00;;;;;;5088514;28;20486;-77
2022/08/25 02:49:34;;;;;;;10.20;7.30;;;23.40;1.00;;;;;;5092656;28;20244;-77
2022/08/25 02:51:59;;;;;;;7.70;6.90;;;23.30;1.00;;;;;;5095952;28;20175;-77
2022/08/25 02:54:26;;;;;;;9.90;7.50;;;23.30;1.00;;;;;;5091646;28;20476;-77
2022/08/25 02:56:52;;;;;;;8.90;6.63;;;23.20;1.00;;;;;;5088974;28;20223;-77
2022/08/25 02:59:18;;;;;;;9.43;7.37;;;23.20;1.00;;;;;;5092932;28;20405;-77
2022/08/25 03:01:44;;;;;;;8.90;7.67;;;23.20;1.00;;;;;;5090612;28;20722;-78
2022/08/25 03:04:10;;;;;;;9.00;7.10;;;23.10;1.00;;;;;;5090308;28;20710;-77
2022/08/25 03:06:36;;;;;;;10.27;7.27;;;23.10;1.00;;;;;;5090125;28;20444;-77
2022/08/25 03:09:01;;;;;;;13.90;6.90;;;23.10;1.00;;;;;;5087169;28;20176;-77
2022/08/25 03:11:27;;;;;;;8.20;6.93;;;23.10;1.00;;;;;;5085403;28;20179;-77
2022/08/25 03:13:55;;;;;;;10.13;7.33;;;23.10;1.00;;;;;;5091132;28;20203;-77
2022/08/25 03:16:21;;;;;;;8.97;7.17;;;23.00;1.00;;;;;;5092015;28;20164;-77
2022/08/25 03:18:47;;;;;;;8.33;6.50;;;23.00;1.00;;;;;;5082678;28;20966;-77
2022/08/25 03:21:13;;;;;;;8.13;7.20;;;23.00;1.00;;;;;;5089695;28;20496;-78
2022/08/25 03:23:40;;;;;;;7.70;6.67;;;23.00;1.00;;;;;;5087724;28;20552;-77
2022/08/25 03:28:50;;;;;;;10.43;8.10;;;22.90;1.00;;;;;;5083528;28;20487;-77
2022/08/25 03:31:16;;;;;;;8.77;6.70;;;22.80;1.00;;;;;;5091261;28;20456;-78
2022/08/25 03:33:41;;;;;;;8.37;7.20;;;22.80;1.00;;;;;;5090131;28;20203;-78
2022/08/25 03:36:10;;;;;;;9.03;7.23;;;22.80;1.00;;;;;;5083625;28;20175;-77
2022/08/25 03:38:37;;;;;;;10.43;7.80;;;22.80;1.00;;;;;;5091076;28;20863;-77
2022/08/25 03:41:10;;;;;;;10.30;7.50;;;22.80;1.00;;;;;;5091883;28;20416;-78
2022/08/25 03:43:36;;;;;;;9.60;8.33;;;22.80;1.00;;;;;;5083127;28;20453;-77
2022/08/25 03:46:01;;;;;;;9.80;7.73;;;22.80;1.00;;;;;;5091309;28;20419;-77
2022/08/25 03:48:28;;;;;;;9.53;8.00;;;22.70;1.00;;;;;;5090101;28;20269;-77
2022/08/25 03:50:53;;;;;;;10.33;7.80;;;22.70;1.00;;;;;;5090114;28;20244;-77
2022/08/25 03:53:19;;;;;;;9.77;7.70;;;22.70;1.00;;;;;;5098656;28;20465;-77
2022/08/25 03:55:45;;;;;;;10.70;7.80;;;23.00;1.00;;;;;;5091072;28;20163;-77
2022/08/25 03:58:11;;;;;;;11.70;8.10;;;22.70;1.00;;;;;;5090396;28;20236;-78
2022/08/25 04:00:36;;;;;;;9.83;8.23;;;22.70;1.00;;;;;;5085167;28;20168;-78
2022/08/25 04:03:02;;;;;;;14.13;8.20;;;22.70;1.00;;;;;;5083386;28;21659;-77
2022/08/25 04:05:28;;;;;;;10.93;8.60;;;22.70;1.00;;;;;;5088707;28;20197;-77
2022/08/25 04:07:54;;;;;;;10.63;7.90;;;22.70;1.00;;;;;;5091466;28;20167;-77
2022/08/25 04:10:20;;;;;;;14.80;9.00;;;22.60;1.00;;;;;;5089401;28;20261;-78
2022/08/25 04:12:48;;;;;;;8.67;7.30;;;22.70;1.00;;;;;;5089985;28;20496;-78
2022/08/25 04:15:13;;;;;;;9.47;7.80;;;22.70;1.00;;;;;;5085394;28;20276;-77
2022/08/25 04:17:39;;;;;;;10.10;8.67;;;22.60;1.00;;;;;;5070998;28;20757;-77
2022/08/25 04:20:07;;;;;;;12.43;7.60;;;22.60;1.00;;;;;;5090551;28;20641;-78
2022/08/25 04:22:33;;;;;;;11.13;8.00;;;22.60;1.00;;;;;;5097584;28;20166;-78
2022/08/25 04:24:58;;;;;;;9.97;7.40;;;22.60;1.00;;;;;;5082390;28;20542;-77
2022/08/25 04:27:24;;;;;;;9.70;7.93;;;22.60;1.00;;;;;;5091052;28;20194;-77
2022/08/25 04:29:50;;;;;;;11.77;8.17;;;22.60;1.00;;;;;;5085069;28;20255;-77
2022/08/25 04:32:15;;;;;;;9.80;8.00;;;22.60;1.00;;;;;;5088495;28;20175;-77
2022/08/25 04:34:42;;;;;;;10.23;8.07;;;22.60;1.00;;;;;;5081514;28;20222;-77
2022/08/25 04:37:08;;;;;;;9.63;7.73;;;22.60;1.00;;;;;;5089125;28;20254;-78
2022/08/25 04:39:34;;;;;;;10.23;8.50;;;22.50;1.00;;;;;;5091123;28;20767;-77
2022/08/25 04:42:00;;;;;;;9.60;7.80;;;22.50;1.00;;;;;;5082977;28;20429;-78
2022/08/25 04:44:25;;;;;;;10.73;8.10;;;22.50;1.00;;;;;;5090526;28;20565;-78
2022/08/25 04:46:51;;;;;;;11.20;8.43;;;22.60;1.00;;;;;;5088013;28;20187;-78
2022/08/25 04:49:16;;;;;;;14.00;8.87;;;22.50;1.00;;;;;;5090029;28;20190;-78
2022/08/25 04:51:43;;;;;;;16.10;8.43;;;22.50;1.00;;;;;;5088138;28;20629;-79
2022/08/25 04:54:11;;;;;;;11.60;8.50;;;22.50;1.00;;;;;;5090673;28;20195;-78
2022/08/25 04:56:39;;;;;;;11.23;8.60;;;22.50;1.00;;;;;;5089262;28;20429;-78
2022/08/25 04:59:13;;;;;;;14.13;8.40;;;22.50;1.00;;;;;;5087038;28;20429;-77
2022/08/25 05:01:40;;;;;;;10.23;7.67;;;22.60;1.00;;;;;;5086215;28;20432;-76
2022/08/25 05:04:07;;;;;;;10.70;8.07;;;23.60;1.00;;;;;;5085856;28;20850;-76
2022/08/25 05:06:32;;;;;;;10.40;7.73;;;22.70;1.00;;;;;;5087889;28;21013;-76
2022/08/25 05:09:00;;;;;;;12.17;7.97;;;22.80;1.00;;;;;;5083109;28;20663;-76
2022/08/25 05:11:26;;;;;;;9.50;8.07;;;22.90;1.00;;;;;;5085325;28;20260;-76
2022/08/25 05:13:53;;;;;;;8.83;7.47;;;22.90;1.00;;;;;;5086468;28;20547;-76
2022/08/25 05:16:21;;;;;;;12.10;8.40;;;23.00;1.00;;;;;;5083204;28;20718;-76
2022/08/25 05:18:47;;;;;;;11.17;7.93;;;23.00;1.00;;;;;;5086570;28;20509;-77
2022/08/25 05:21:17;;;;;;;18.10;8.90;;;23.30;1.00;;;;;;5097503;28;20409;-77
2022/08/25 05:23:43;;;;;;;10.70;8.07;;;23.10;1.00;;;;;;5087451;28;20222;-76
2022/08/25 05:26:15;;;;;;;9.93;7.70;;;23.20;1.00;;;;;;5089018;28;20473;-77
2022/08/25 05:28:51;;;;;;;10.40;7.53;;;23.20;1.00;;;;;;5069005;28;20541;-77
2022/08/25 05:31:17;;;;;;;10.93;8.20;;;23.20;1.00;;;;;;5069826;28;20545;-77
2022/08/25 05:33:43;;;;;;;9.40;7.67;;;23.30;1.00;;;;;;5065146;28;20539;-77
2022/08/25 05:36:11;;;;;;;10.77;8.37;;;23.30;1.00;;;;;;5061148;28;20521;-77
2022/08/25 05:38:37;;;;;;;22.37;8.20;;;23.40;1.00;;;;;;5060941;28;20666;-77
2022/08/25 05:41:06;;;;;;;12.63;8.37;;;23.40;1.00;;;;;;5063366;28;20434;-78
2022/08/25 05:43:32;;;;;;;12.20;8.27;;;23.50;1.00;;;;;;5052184;28;20189;-77
2022/08/25 05:45:58;;;;;;;11.80;7.70;;;23.50;1.00;;;;;;5061704;28;20426;-76
2022/08/25 05:48:25;;;;;;;9.60;8.50;;;23.50;1.00;;;;;;5052433;28;20473;-78
2022/08/25 05:51:01;;;;;;;14.77;8.60;;;23.50;1.00;;;;;;5050926;28;20538;-78
2022/08/25 05:53:28;;;;;;;11.43;7.97;;;23.70;1.00;;;;;;5052582;28;20500;-76
2022/08/25 05:55:56;;;;;;;13.90;7.90;;;23.70;1.00;;;;;;5067518;28;20402;-79
2022/08/25 05:58:22;;;;;;;21.30;8.43;;;23.80;1.00;;;;;;5067117;28;20417;-78
2022/08/25 06:00:49;;;;;;;9.03;7.60;;;23.90;1.00;;;;;;5065382;28;20421;-77
2022/08/25 06:03:15;;;;;;;10.47;8.10;;;23.90;1.00;;;;;;5061668;28;20480;-78
2022/08/25 06:05:40;;;;;;;11.20;7.50;;;24.00;1.00;;;;;;5048403;28;20447;-77
2022/08/25 06:08:06;;;;;;;8.43;7.13;;;24.10;1.00;;;;;;5059339;28;20192;-77
2022/08/25 06:10:32;;;;;;;10.30;7.85;;;24.10;1.00;;;;;;5051899;28;20588;-78
2022/08/25 06:12:58;;;;;;;9.70;7.30;;;24.20;1.00;;;;;;5055503;28;20641;-81
2022/08/25 06:15:24;;;;;;;9.30;7.63;;;24.40;1.00;;;;;;5062456;28;20434;-78
2022/08/25 06:17:51;;;;;;;13.80;8.70;;;24.50;1.00;;;;;;5064747;28;20176;-80
2022/08/25 06:20:22;;;;;;;12.50;8.13;;;24.70;1.00;;;;;;5058408;28;20426;-77
2022/08/25 06:22:49;;;;;;;9.50;8.07;;;24.70;1.00;;;;;;5075590;28;20610;-78
2022/08/25 06:25:17;;;;;;;8.23;7.10;;;24.80;1.00;;;;;;5066179;28;20431;-77
2022/08/25 06:27:42;;;;;;;11.73;7.93;;;25.00;1.00;;;;;;5060878;28;20462;-79
2022/08/25 06:30:10;;;;;;;9.57;8.10;;;25.10;1.00;;;;;;5064754;28;20411;-77
2022/08/25 06:32:38;;;;;;;10.80;8.40;;;25.20;1.00;;;;;;5059105;28;20182;-80
2022/08/25 06:35:07;;;;;;;8.63;7.60;;;25.30;1.00;;;;;;5063314;28;20481;-77
2022/08/25 06:37:33;;;;;;;8.87;7.80;;;25.40;1.00;;;;;;5060760;28;20426;-79
2022/08/25 06:39:59;;;;;;;9.90;8.20;;;25.60;1.00;;;;;;5044610;28;20426;-76
2022/08/25 06:42:24;;;;;;;8.70;7.60;;;25.80;1.00;;;;;;5051245;28;20805;-77
2022/08/25 06:44:50;;;;;;;10.30;8.57;;;25.90;1.00;;;;;;5045619;28;20215;-77
2022/08/25 06:47:16;;;;;;;9.10;7.60;;;26.10;1.00;;;;;;5044664;28;20675;-78
2022/08/25 06:49:42;;;;;;;13.10;8.00;;;26.20;1.00;;;;;;5034587;28;20642;-78
2022/08/25 06:52:09;;;;;;;8.80;7.53;;;26.40;1.00;;;;;;5043588;28;20481;-79
2022/08/25 06:54:35;;;;;;;10.17;7.97;;;26.50;1.00;;;;;;5044869;28;20446;-78
2022/08/25 06:57:01;;;;;;;8.60;7.70;;;26.60;1.00;;;;;;5060835;28;20952;-79
2022/08/25 06:59:27;;;;;;;8.90;7.97;;;26.60;1.00;;;;;;5048012;28;20173;-79
2022/08/25 07:01:53;;;;;;;10.90;8.93;;;26.70;1.00;;;;;;5042933;28;21696;-79
2022/08/25 07:04:19;;;;;;;10.93;7.60;;;26.90;1.00;;;;;;5048759;28;20196;-79
2022/08/25 07:06:45;;;;;;;12.20;8.00;;;26.90;1.00;;;;;;5061316;28;20245;-79
2022/08/25 07:09:11;;;;;;;14.40;7.80;;;27.60;1.00;;;;;;5048237;28;20252;-79
2022/08/25 07:11:39;;;;;;;9.53;7.53;;;27.20;1.00;;;;;;5048935;28;20216;-79
2022/08/25 07:14:06;;;;;;;9.20;7.90;;;27.30;1.00;;;;;;5049098;28;20517;-78
2022/08/25 07:16:32;;;;;;;8.87;7.60;;;27.30;1.00;;;;;;5037723;28;20436;-79
2022/08/25 07:18:59;;;;;;;9.87;7.60;;;27.40;1.00;;;;;;5047819;28;20173;-79
2022/08/25 07:21:26;;;;;;;11.23;7.77;;;27.20;1.00;;;;;;5050891;28;20426;-79
2022/08/25 07:23:52;;;;;;;10.07;6.93;;;27.40;1.00;;;;;;5046587;28;20201;-79
2022/08/25 07:26:23;;;;;;;9.50;7.20;;;27.60;1.00;;;;;;5055388;28;20172;-79
2022/08/25 07:28:48;;;;;;;10.00;7.77;;;27.70;1.00;;;;;;5052626;28;20177;-79
2022/08/25 07:31:14;;;;;;;10.47;7.53;;;27.70;1.00;;;;;;5043308;28;21333;-79
2022/08/25 07:35:14;;;;;;;9.97;7.70;;;27.80;1.00;;;;;;5039996;28;20193;-78
2022/08/25 07:36:26;;;;;;;9.07;7.77;;;28.10;1.00;;;;;;5050702;28;20175;-79
2022/08/25 07:38:52;;;;;;;8.30;7.13;;;28.40;1.00;;;;;;5045795;28;20173;-79
2022/08/25 07:41:17;;;;;;;8.97;7.50;;;28.80;1.00;;;;;;5040590;28;20173;-79
2022/08/25 07:43:44;;;;;;;11.57;8.03;;;29.60;1.00;;;;;;5052080;28;20210;-79
2022/08/25 07:46:10;;;;;;;10.00;7.95;;;30.70;1.00;;;;;;5053544;28;20204;-80
2022/08/25 07:48:35;;;;;;;9.18;7.10;;;31.80;1.00;;;;;;5047972;28;20292;-80
2022/08/25 07:51:10;;;;;;;8.25;6.97;;;32.50;1.00;;;;;;5048817;28;20222;-79
2022/08/25 07:53:36;;;;;;;7.47;6.47;;;33.00;1.00;;;;;;5055668;28;20265;-79
2022/08/25 07:56:01;;;;;;;7.90;6.78;;;33.90;1.00;;;;;;5048115;28;20196;-80
2022/08/25 07:58:27;;;;;;;7.53;6.40;;;34.80;1.00;;;;;;5048343;28;20187;-80
2022/08/25 08:00:53;;;;;;;8.23;6.82;;;35.10;1.00;;;;;;5054422;28;20172;-80
2022/08/25 08:03:22;;;;;;;10.00;6.43;;;35.60;1.00;;;;;;5054818;28;20667;-81
2022/08/25 08:05:47;;;;;;;7.82;6.35;;;35.90;1.00;;;;;;5055646;28;20177;-80
2022/08/25 08:08:13;;;;;;;7.82;5.85;;;36.60;1.00;;;;;;5059254;28;20271;-81
2022/08/25 08:10:40;;;;;;;7.28;6.32;;;37.00;1.00;;;;;;5052340;28;20172;-79
2022/08/25 08:13:06;;;;;;;6.97;6.28;;;37.60;1.00;;;;;;5051269;28;20188;-80
2022/08/25 08:15:33;;;;;;;6.18;5.47;;;38.00;1.00;;;;;;5056666;28;20644;-80
2022/08/25 08:17:59;;;;;;;7.35;6.00;;;38.80;1.00;;;;;;5044726;28;20185;-79
2022/08/25 08:20:25;;;;;;;19.67;6.55;;;38.60;1.00;;;;;;5051823;28;20191;-77
2022/08/25 08:22:51;;;;;;;8.27;5.88;;;39.10;1.00;;;;;;5051312;28;20192;-79
2022/08/25 08:25:17;;;;;;;7.13;5.93;;;39.20;1.00;;;;;;5050769;28;20172;-79
2022/08/25 08:27:44;;;;;;;8.38;6.18;;;39.10;1.00;;;;;;5053333;28;20239;-79
2022/08/25 08:30:11;;;;;;;9.88;5.75;;;39.10;1.00;;;;;;5056475;28;20670;-78
2022/08/25 08:32:36;;;;;;;6.47;5.15;;;39.20;1.00;;;;;;5054731;28;20181;-81
2022/08/25 08:35:02;;;;;;;8.93;5.47;;;39.30;1.00;;;;;;5051831;28;20203;-80
2022/08/25 08:37:28;;;;;;;9.40;5.72;;;39.20;1.00;;;;;;5053099;28;20199;-80
2022/08/25 08:39:54;;;;;;;5.03;4.53;;;39.40;1.00;;;;;;5062596;28;20187;-79
2022/08/25 08:42:35;;;;;;;9.43;4.85;;;39.80;1.00;;;;;;5055232;28;20192;-80
2022/08/25 08:45:31;;;;;;;5.28;4.78;;;40.50;1.00;;;;;;5047295;28;20196;-80
2022/08/25 08:48:27;;;;;;;7.55;5.53;;;40.80;1.00;;;;;;5058216;28;20206;-80
2022/08/25 08:51:20;;;;;;;6.30;5.40;;;41.10;1.00;;;;;;5056937;28;20172;-77
2022/08/25 08:53:53;;;;;;;6.53;5.13;;;40.90;1.00;;;;;;5059691;28;20192;-80
2022/08/25 08:56:24;;;;;;;7.65;5.45;;;40.30;1.00;;;;;;5053496;28;20183;-80
2022/08/25 08:59:04;;;;;;;8.75;5.07;;;40.00;1.00;;;;;;5060093;28;20188;-80
2022/08/25 09:01:34;;;;;;;6.67;4.93;;;39.80;1.00;;;;;;5055890;28;20651;-79
2022/08/25 09:04:09;;;;;;;7.93;4.82;;;40.20;1.00;;;;;;5043495;28;20547;-79
2022/08/25 09:06:46;;;;;;;4.95;4.45;;;40.30;1.00;;;;;;5044368;28;20206;-80
2022/08/25 09:09:18;;;;;;;5.90;4.72;;;40.80;1.00;;;;;;5044443;28;20618;-79
2022/08/25 09:12:05;;;;;;;5.63;4.50;;;41.60;1.00;;;;;;5046542;28;20185;-79
2022/08/25 09:15:09;;;;;;;6.10;4.85;;;41.80;1.00;;;;;;5045294;28;20201;-79
2022/08/25 09:18:13;;;;;;;6.82;5.22;;;41.80;1.00;;;;;;5022934;28;20203;-79
2022/08/25 09:21:02;;;;;;;5.45;4.95;;;41.40;1.00;;;;;;5041525;28;20184;-79
2022/08/25 09:23:33;;;;;;;5.38;4.80;;;41.60;1.00;;;;;;5052608;28;20224;-79
2022/08/25 09:26:19;;;;;;;5.25;4.50;;;41.10;1.00;;;;;;5054814;28;20172;-79
2022/08/25 09:28:59;;;;;;;5.28;4.32;;;40.80;1.00;;;;;;5048709;28;20506;-79
2022/08/25 09:31:34;;;;;;;6.07;4.53;;;41.30;1.00;;;;;;5051607;28;20166;-79
2022/08/25 09:34:04;;;;;;;7.40;4.25;;;42.00;1.00;;;;;;5040862;28;20187;-78
2022/08/25 09:36:30;;;;;;;6.47;3.92;;;42.30;1.00;;;;;;5039558;28;20625;-79
2022/08/25 09:38:56;;;;;;;4.35;3.95;;;42.20;1.00;;;;;;5036809;28;20173;-79
2022/08/25 09:41:48;;;;;;;4.78;4.10;;;42.20;1.00;;;;;;5048350;28;20168;-79
2022/08/25 09:44:31;;;;;;;4.25;3.78;;;42.90;1.00;;;;;;5054938;28;20231;-79
2022/08/25 09:47:04;;;;;;;5.18;4.68;;;43.70;1.00;;;;;;5048075;28;20210;-78
2022/08/25 09:49:36;;;;;;;7.18;4.32;;;44.20;1.00;;;;;;5057331;28;20172;-79
2022/08/25 09:52:26;;;;;;;4.68;3.67;;;43.90;1.00;;;;;;5045309;28;20251;-79
2022/08/25 09:54:54;;;;;;;8.43;4.28;;;41.90;1.00;;;;;;5054897;28;20193;-79
2022/08/25 09:57:31;;;;;;;5.50;4.53;;;42.00;1.00;;;;;;5044624;28;20526;-79
2022/08/25 10:00:17;;;;;;;11.23;4.68;;;41.90;1.00;;;;;;5045488;28;20188;-78
2022/08/25 10:02:59;;;;;;;6.25;4.03;;;41.50;1.00;;;;;;5051009;28;20196;-79
2022/08/25 10:05:26;;;;;;;5.15;4.10;;;42.60;1.00;;;;;;5055085;28;20173;-79
2022/08/25 10:07:56;;;;;;;8.05;4.40;;;43.70;1.00;;;;;;5055029;28;20200;-79
2022/08/25 10:10:34;;;;;;;5.03;4.03;;;44.00;1.00;;;;;;5047459;28;20224;-79
2022/08/25 10:13:02;;;;;;;6.38;3.90;;;42.80;1.00;;;;;;5046365;28;20176;-79
2022/08/25 10:15:36;;;;;;;6.65;3.92;;;42.40;1.00;;;;;;5058454;28;20403;-78
2022/08/25 10:18:25;;;;;;;7.18;4.55;;;42.10;1.00;;;;;;5052408;28;20180;-79
2022/08/25 10:21:13;;;;;;;6.05;4.93;;;42.00;1.00;;;;;;5052733;28;20173;-79
2022/08/25 10:23:51;;;;;;;11.15;5.45;;;42.20;1.00;;;;;;5075661;28;20188;-85
2022/08/25 10:26:43;;;;;;;26.80;12.55;;;42.60;1.00;;;;;;5067230;28;20180;-84
2022/08/25 10:29:39;;;;;;;4.65;4.25;;;43.70;1.00;;;;;;5035428;28;20257;-79
2022/08/25 10:32:25;;;;;;;7.90;4.35;;;44.50;1.00;;;;;;5049570;28;20177;-79
2022/08/25 10:34:57;;;;;;;5.38;4.20;;;45.50;1.00;;;;;;5045005;28;20374;-79
2022/08/25 10:37:37;;;;;;;6.75;4.25;;;46.10;1.00;;;;;;5058638;28;20175;-79
2022/08/25 10:40:53;;;;;;;6.25;3.75;;;45.40;1.00;;;;;;5048046;28;20196;-79
2022/08/25 10:43:42;;;;;;;5.45;3.80;;;44.40;1.00;;;;;;5043279;28;20283;-79
2022/08/25 10:46:24;;;;;;;5.25;3.97;;;44.70;1.00;;;;;;5044991;28;20215;-78
2022/08/25 10:49:12;;;;;;;11.27;4.07;;;44.80;1.00;;;;;;5048613;28;20212;-79
2022/08/25 10:51:47;;;;;;;10.30;4.43;;;45.00;1.00;;;;;;5041852;28;20185;-78
2022/08/25 10:54:42;;;;;;;4.85;4.03;;;44.80;1.00;;;;;;5052624;28;20191;-79
2022/08/25 10:57:13;;;;;;;5.38;3.85;;;45.00;1.00;;;;;;5041106;28;20252;-78
2022/08/25 10:59:50;;;;;;;6.20;3.95;;;45.20;1.00;;;;;;5045849;28;20184;-78
2022/08/25 11:02:30;;;;;;;25.42;4.53;;;45.30;1.00;;;;;;5040468;28;20260;-79
2022/08/25 11:05:06;;;;;;;7.63;4.25;;;45.30;1.00;;;;;;5045818;28;20249;-78
2022/08/25 11:07:43;;;;;;;5.85;3.85;;;46.00;1.00;;;;;;5051028;28;20211;-79
2022/08/25 11:10:24;;;;;;;4.50;3.85;;;46.20;1.00;;;;;;5049392;28;20550;-80
2022/08/25 11:13:02;;;;;;;6.13;4.18;;;46.30;1.00;;;;;;5050580;28;20180;-79
2022/08/25 11:15:36;;;;;;;34.13;30.92;;;46.70;1.00;;;;;;5055362;28;20820;-79
2022/08/25 11:18:07;;;;;;;9.85;8.95;;;46.80;1.00;;;;;;5051550;28;20187;-79
2022/08/25 11:20:40;;;;;;;21.77;19.67;;;47.30;1.00;;;;;;5048159;28;20177;-79
2022/08/25 11:23:15;;;;;;;46.50;38.25;;;46.90;1.00;;;;;;5051091;28;20200;-79
2022/08/25 11:25:44;;;;;;;4.30;3.90;;;47.20;1.00;;;;;;5056819;28;20172;-80
2022/08/25 11:28:29;;;;;;;4.70;4.20;;;48.70;1.00;;;;;;5050762;28;20208;-80
2022/08/25 11:30:59;;;;;;;4.80;3.45;;;48.60;1.00;;;;;;5055553;28;20196;-80
2022/08/25 11:33:28;;;;;;;4.25;3.85;;;47.90;1.00;;;;;;5051685;28;20278;-80
2022/08/25 11:36:03;;;;;;;6.47;3.95;;;47.10;1.00;;;;;;5056139;28;20218;-80
2022/08/25 11:38:49;;;;;;;6.53;4.95;;;47.40;1.00;;;;;;5056586;28;20175;-80
2022/08/25 11:41:40;;;;;;;17.80;15.68;;;48.40;1.00;;;;;;5037721;28;20177;-79
2022/08/25 11:44:24;;;;;;;14.30;13.00;;;47.80;1.00;;;;;;5050203;28;20254;-80
2022/08/25 11:46:58;;;;;;;4.75;3.33;;;47.10;1.00;;;;;;5041233;28;20517;-80
2022/08/25 11:49:44;;;;;;;11.10;9.20;;;46.70;1.00;;;;;;5054083;28;20164;-79
2022/08/25 11:52:32;;;;;;;4.90;4.15;;;46.00;1.00;;;;;;5048775;28;20256;-80
2022/08/25 11:55:24;;;;;;;6.10;4.95;;;46.60;1.00;;;;;;5056048;28;20192;-80
2022/08/25 11:57:52;;;;;;;5.47;3.42;;;47.20;1.00;;;;;;5045360;28;20323;-79
2022/08/25 12:00:39;;;;;;;4.40;3.85;;;47.80;1.00;;;;;;5057350;28;20180;-80
2022/08/25 12:03:35;;;;;;;7.38;4.18;;;47.30;1.00;;;;;;5050525;28;20173;-79
2022/08/25 12:06:24;;;;;;;6.25;4.22;;;47.10;1.00;;;;;;5050580;28;20181;-79
2022/08/25 12:09:16;;;;;;;6.78;4.05;;;47.40;1.00;;;;;;5053781;28;20210;-80
2022/08/25 12:11:48;;;;;;;5.60;3.85;;;48.10;1.00;;;;;;5054555;28;20181;-80
2022/08/25 12:14:23;;;;;;;6.97;3.72;;;49.20;1.00;;;;;;5052103;28;20209;-80
2022/08/25 12:16:54;;;;;;;6.55;4.13;;;50.20;1.00;;;;;;5039896;28;20186;-80
2022/08/25 12:19:34;;;;;;;5.40;3.70;;;50.40;1.00;;;;;;5058320;28;20177;-80
2022/08/25 12:22:00;;;;;;;4.18;3.55;;;50.50;1.00;;;;;;5053030;28;20176;-80
2022/08/25 12:24:54;;;;;;;5.35;3.67;;;51.10;1.00;;;;;;5068317;28;20196;-80
2022/08/25 12:27:39;;;;;;;5.18;3.90;;;51.20;1.00;;;;;;5050982;28;20219;-80
2022/08/25 12:30:14;;;;;;;4.85;3.90;;;50.80;1.00;;;;;;5050567;28;20176;-80
2022/08/25 12:33:18;;;;;;;6.65;3.65;;;49.50;1.00;;;;;;5057490;28;20172;-79
2022/08/25 12:36:02;;;;;;;4.45;3.67;;;48.40;1.00;;;;;;5047405;28;20218;-80
2022/08/25 12:38:43;;;;;;;3.70;3.40;;;48.70;1.00;;;;;;5054802;28;20177;-80
2022/08/25 12:41:22;;;;;;;4.47;3.50;;;49.50;1.00;;;;;;5047401;28;20175;-80
2022/08/25 12:43:50;;;;;;;4.30;3.90;;;48.10;1.00;;;;;;5057180;28;20247;-79
2022/08/25 12:46:21;;;;;;;5.65;3.80;;;47.00;1.00;;;;;;5051268;28;20179;-80
2022/08/25 12:49:11;;;;;;;5.55;3.90;;;47.40;1.00;;;;;;5055128;28;20306;-80
2022/08/25 12:51:50;;;;;;;11.43;4.07;;;48.10;1.00;;;;;;5050162;28;20176;-80
2022/08/25 12:54:19;;;;;;;3.70;3.40;;;49.00;1.00;;;;;;5063102;28;20199;-80
2022/08/25 12:56:51;;;;;;;5.22;3.95;;;49.70;1.00;;;;;;5060202;28;20177;-80
2022/08/25 12:59:20;;;;;;;5.28;3.75;;;50.50;1.00;;;;;;5049344;28;20192;-80
2022/08/25 13:02:04;;;;;;;4.32;3.72;;;50.60;1.00;;;;;;5052290;28;20177;-80
2022/08/25 13:04:48;;;;;;;6.85;3.78;;;51.20;1.00;;;;;;5048128;28;20714;-80
2022/08/25 13:07:32;;;;;;;4.18;3.60;;;51.90;1.00;;;;;;5059756;28;20199;-80
2022/08/25 13:10:16;;;;;;;4.10;3.55;;;52.10;1.00;;;;;;5052023;28;20173;-80
2022/08/25 13:13:09;;;;;;;3.60;3.10;;;52.40;1.00;;;;;;5055150;28;20168;-80
2022/08/25 13:15:41;;;;;;;3.55;3.10;;;52.30;1.00;;;;;;5056617;28;20240;-80
2022/08/25 13:18:25;;;;;;;3.50;3.00;;;52.10;1.00;;;;;;5050253;28;20196;-80